Time;durP1;ratioP1;P1;durP2;ratioP2;P2;SDS_P1;SDS_P2;PMS_P1;PMS_P2;Temp;Humidity;BMP_temperature;BMP_pressure;BME280_temperature;BME280_humidity;BME280_pressure;Samples;Min_cycle;Max_cycle;Signal;HPM_P1;HPM_P2
2023/05/21 00:00:12;;;;;;;0.00;0.00;;;;;;;12.41;100.00;100747.28;4992482;28;20208;-76
2023/05/21 00:02:38;;;;;;;0.00;0.00;;;;;;;12.27;100.00;100746.56;4992336;28;20199;-76
2023/05/21 00:05:04;;;;;;;0.00;0.00;;;;;;;12.37;100.00;100750.97;4992167;28;20542;-76
2023/05/21 00:07:31;;;;;;;0.00;0.00;;;;;;;12.34;100.00;100744.22;4992315;28;20251;-76
2023/05/21 00:09:57;;;;;;;0.00;0.00;;;;;;;12.31;100.00;100755.00;4992313;28;20176;-76
2023/05/21 00:12:22;;;;;;;0.10;0.10;;;;;;;12.23;100.00;100747.53;4974462;28;20558;-75
2023/05/21 00:14:47;;;;;;;0.00;0.00;;;;;;;12.23;100.00;100737.38;4992405;28;20185;-76
2023/05/21 00:17:13;;;;;;;0.00;0.00;;;;;;;12.12;100.00;100736.03;4974574;28;20185;-75
2023/05/21 00:19:39;;;;;;;0.00;0.00;;;;;;;12.07;100.00;100730.69;4992360;28;20238;-75
2023/05/21 00:22:04;;;;;;;0.00;0.00;;;;;;;12.07;100.00;100727.97;4974780;28;20574;-75
2023/05/21 00:24:30;;;;;;;0.00;0.00;;;;;;;12.10;100.00;100733.59;4974764;28;20181;-75
2023/05/21 00:26:56;;;;;;;0.00;0.00;;;;;;;12.11;100.00;100726.19;4991655;28;20185;-76
2023/05/21 00:29:21;;;;;;;0.00;0.00;;;;;;;12.20;100.00;100736.09;4992176;28;20195;-76
2023/05/21 00:31:48;;;;;;;0.00;0.00;;;;;;;12.18;100.00;100727.38;4991865;28;20303;-75
2023/05/21 00:34:14;;;;;;;0.00;0.00;;;;;;;12.12;100.00;100719.59;4992136;28;20173;-76
2023/05/21 00:36:39;;;;;;;0.00;0.00;;;;;;;12.11;100.00;100720.72;4991507;28;20185;-76
2023/05/21 00:39:05;;;;;;;0.00;0.00;;;;;;;12.05;100.00;100722.78;4991714;28;20208;-76
2023/05/21 00:41:31;;;;;;;0.00;0.00;;;;;;;11.99;100.00;100715.00;4991813;28;20208;-75
2023/05/21 00:43:59;;;;;;;0.00;0.00;;;;;;;12.17;100.00;100709.31;4992005;28;20203;-76
2023/05/21 00:46:27;;;;;;;0.00;0.00;;;;;;;12.17;100.00;100711.25;4991396;28;20180;-76
2023/05/21 00:48:53;;;;;;;0.00;0.00;;;;;;;11.98;100.00;100708.72;4991836;28;20260;-76
2023/05/21 00:51:20;;;;;;;0.03;0.03;;;;;;;11.93;100.00;100708.88;4991670;28;20181;-76
2023/05/21 00:53:48;;;;;;;0.00;0.00;;;;;;;11.90;100.00;100713.06;4974182;28;20185;-74
2023/05/21 00:56:14;;;;;;;0.00;0.00;;;;;;;11.87;100.00;100708.22;4991072;28;20188;-76
2023/05/21 00:58:40;;;;;;;0.00;0.00;;;;;;;11.90;100.00;100709.50;4974271;28;20247;-76
2023/05/21 01:01:05;;;;;;;0.50;0.50;;;;;;;11.86;100.00;100701.13;4974500;28;20185;-76
2023/05/21 01:03:37;;;;;;;0.00;0.00;;;;;;;11.92;100.00;100701.78;4991867;28;20282;-75
2023/05/21 01:06:07;;;;;;;0.00;0.00;;;;;;;11.79;100.00;100700.75;4991588;28;20177;-76
2023/05/21 01:08:33;;;;;;;0.00;0.00;;;;;;;11.78;100.00;100698.28;4991298;28;20603;-76
2023/05/21 01:11:01;;;;;;;0.00;0.00;;;;;;;11.67;100.00;100689.53;4991473;28;20243;-76
2023/05/21 01:13:26;;;;;;;0.00;0.00;;;;;;;11.64;100.00;100698.38;4991175;28;20715;-75
2023/05/21 01:15:53;;;;;;;0.00;0.00;;;;;;;11.59;100.00;100699.31;4974077;28;20239;-76
2023/05/21 01:18:19;;;;;;;0.00;0.00;;;;;;;11.55;100.00;100698.28;4991128;28;20185;-76
2023/05/21 01:20:46;;;;;;;0.00;0.00;;;;;;;11.51;100.00;100691.84;4991463;28;20188;-76
2023/05/21 01:23:21;;;;;;;0.00;0.00;;;;;;;11.56;100.00;100693.63;4991134;28;20675;-76
2023/05/21 01:25:46;;;;;;;0.00;0.00;;;;;;;11.58;100.00;100694.16;4974260;28;20554;-76
2023/05/21 01:28:13;;;;;;;0.00;0.00;;;;;;;11.64;100.00;100701.09;4973920;28;20193;-76
2023/05/21 01:30:40;;;;;;;0.00;0.00;;;;;;;11.87;100.00;100694.53;4973935;28;20643;-75
2023/05/21 01:33:16;;;;;;;0.00;0.00;;;;;;;12.03;100.00;100694.13;4991086;28;20217;-75
2023/05/21 01:35:55;;;;;;;0.10;0.10;;;;;;;11.89;100.00;100692.28;4974166;28;20192;-76
2023/05/21 01:38:26;;;;;;;0.00;0.00;;;;;;;11.72;100.00;100685.88;4991463;28;20533;-76
2023/05/21 01:40:54;;;;;;;0.00;0.00;;;;;;;11.68;100.00;100685.66;4991524;28;20660;-75
2023/05/21 01:43:22;;;;;;;0.27;0.27;;;;;;;11.41;100.00;100683.06;4974281;28;20267;-76
2023/05/21 01:45:52;;;;;;;0.00;0.00;;;;;;;11.37;100.00;100679.34;4974007;28;20188;-76
2023/05/21 01:48:18;;;;;;;0.63;0.63;;;;;;;11.48;100.00;100680.72;4973614;28;20185;-75
2023/05/21 01:50:45;;;;;;;0.00;0.00;;;;;;;11.63;100.00;100686.59;4974887;28;20189;-77
2023/05/21 01:53:10;;;;;;;0.00;0.00;;;;;;;11.80;100.00;100682.38;4995009;28;20223;-74
2023/05/21 01:55:40;;;;;;;0.00;0.00;;;;;;;11.57;100.00;100692.50;4995251;28;20189;-76
2023/05/21 01:58:07;;;;;;;0.67;0.67;;;;;;;11.38;100.00;100683.69;4995743;28;20181;-77
2023/05/21 02:00:33;;;;;;;0.00;0.00;;;;;;;11.26;100.00;100682.31;4979134;28;20189;-76
2023/05/21 02:02:59;;;;;;;0.00;0.00;;;;;;;11.22;100.00;100681.31;4995328;28;20657;-76
2023/05/21 02:05:25;;;;;;;0.00;0.00;;;;;;;11.49;100.00;100685.06;4995045;28;20252;-75
2023/05/21 02:07:51;;;;;;;0.00;0.00;;;;;;;11.62;100.00;100689.66;4994307;28;20243;-76
2023/05/21 02:10:17;;;;;;;0.00;0.00;;;;;;;11.74;100.00;100695.38;4994941;28;20590;-76
2023/05/21 02:12:43;;;;;;;0.00;0.00;;;;;;;11.78;100.00;100693.63;4994468;28;20742;-76
2023/05/21 02:15:09;;;;;;;0.00;0.00;;;;;;;11.59;100.00;100688.34;4994765;28;20532;-76
2023/05/21 02:17:37;;;;;;;0.00;0.00;;;;;;;11.35;100.00;100687.84;4994091;28;20173;-77
2023/05/21 02:20:11;;;;;;;0.00;0.00;;;;;;;11.38;100.00;100684.50;4994564;28;20276;-76
2023/05/21 02:22:42;;;;;;;0.00;0.00;;;;;;;11.28;100.00;100679.25;4994312;28;20221;-76
2023/05/21 02:25:09;;;;;;;0.00;0.00;;;;;;;11.14;100.00;100682.06;4976935;28;20582;-76
2023/05/21 02:27:36;;;;;;;0.00;0.00;;;;;;;11.02;100.00;100677.16;4976323;28;20255;-76
2023/05/21 02:30:03;;;;;;;0.00;0.00;;;;;;;10.97;100.00;100671.78;4976893;28;20217;-76
2023/05/21 02:32:30;;;;;;;0.00;0.00;;;;;;;10.80;100.00;100679.00;4994062;28;20344;-76
2023/05/21 02:34:57;;;;;;;0.00;0.00;;;;;;;10.74;100.00;100672.88;4976706;28;20674;-76
2023/05/21 02:37:24;;;;;;;0.00;0.00;;;;;;;10.70;100.00;100669.94;4976300;28;20193;-76
2023/05/21 02:39:49;;;;;;;0.00;0.00;;;;;;;10.89;100.00;100674.44;4994114;28;20185;-76
2023/05/21 02:42:15;;;;;;;0.00;0.00;;;;;;;10.93;100.00;100676.25;4993668;28;20695;-76
2023/05/21 02:44:40;;;;;;;0.00;0.00;;;;;;;10.83;100.00;100672.94;4993866;28;20188;-76
2023/05/21 02:47:09;;;;;;;0.00;0.00;;;;;;;10.73;100.00;100663.84;4993558;28;20524;-76
2023/05/21 02:49:34;;;;;;;0.00;0.00;;;;;;;10.67;100.00;100667.78;4976244;28;20598;-76
2023/05/21 02:51:59;;;;;;;0.00;0.00;;;;;;;10.75;100.00;100671.75;4993444;28;20236;-77
2023/05/21 02:54:25;;;;;;;0.00;0.00;;;;;;;10.61;100.00;100666.31;4994046;28;20204;-76
2023/05/21 02:56:50;;;;;;;0.00;0.00;;;;;;;10.60;100.00;100669.34;4993335;28;20212;-76
2023/05/21 02:59:15;;;;;;;0.00;0.00;;;;;;;10.58;100.00;100668.84;4976098;28;20625;-76
2023/05/21 03:01:41;;;;;;;0.00;0.00;;;;;;;10.71;100.00;100671.56;4993211;28;20197;-76
2023/05/21 03:04:06;;;;;;;0.00;0.00;;;;;;;10.68;100.00;100668.59;4976185;28;20279;-76
2023/05/21 03:06:33;;;;;;;0.00;0.00;;;;;;;10.87;100.00;100663.81;4975709;28;20549;-76
2023/05/21 03:08:58;;;;;;;0.00;0.00;;;;;;;11.02;100.00;100671.69;4976209;28;20191;-76
2023/05/21 03:11:24;;;;;;;0.13;0.13;;;;;;;10.77;100.00;100663.25;4993782;28;20173;-75
2023/05/21 03:13:50;;;;;;;0.00;0.00;;;;;;;10.66;100.00;100663.44;4993428;28;20614;-76
2023/05/21 03:16:16;;;;;;;0.00;0.00;;;;;;;10.85;100.00;100655.13;4993081;28;20260;-75
2023/05/21 03:18:42;;;;;;;0.00;0.00;;;;;;;10.70;100.00;100661.75;4976278;28;20237;-76
2023/05/21 03:21:08;;;;;;;0.00;0.00;;;;;;;10.91;100.00;100655.81;4993355;28;20651;-76
2023/05/21 03:23:34;;;;;;;0.00;0.00;;;;;;;10.99;100.00;100657.78;4975791;28;20235;-75
2023/05/21 03:26:01;;;;;;;0.00;0.00;;;;;;;10.83;100.00;100657.34;4993169;28;20770;-76
2023/05/21 03:28:26;;;;;;;0.00;0.00;;;;;;;10.64;100.00;100649.28;4992754;28;20656;-76
2023/05/21 03:30:52;;;;;;;0.00;0.00;;;;;;;10.49;100.00;100646.88;4993232;28;20197;-76
2023/05/21 03:33:17;;;;;;;0.17;0.17;;;;;;;10.58;100.00;100645.06;4975456;28;20224;-77
2023/05/21 03:35:42;;;;;;;0.00;0.00;;;;;;;10.58;100.00;100642.34;4975542;28;20559;-75
2023/05/21 03:38:08;;;;;;;0.00;0.00;;;;;;;10.79;100.00;100645.41;4992585;28;20377;-77
2023/05/21 03:40:33;;;;;;;0.00;0.00;;;;;;;10.85;100.00;100646.94;4993018;28;20181;-76
2023/05/21 03:42:58;;;;;;;0.00;0.00;;;;;;;10.73;100.00;100641.19;4992866;28;20212;-76
2023/05/21 03:45:24;;;;;;;0.00;0.00;;;;;;;10.58;100.00;100645.06;4975546;28;20268;-76
2023/05/21 03:47:49;;;;;;;0.10;0.10;;;;;;;10.54;100.00;100638.56;4992527;28;20181;-75
2023/05/21 03:50:15;;;;;;;0.00;0.00;;;;;;;10.41;100.00;100640.25;4988613;28;20667;-76
2023/05/21 03:52:41;;;;;;;0.00;0.00;;;;;;;10.32;100.00;100647.53;4992407;28;20552;-76
2023/05/21 03:55:07;;;;;;;0.00;0.00;;;;;;;10.26;100.00;100637.78;4992931;28;20192;-76
2023/05/21 03:57:33;;;;;;;0.00;0.00;;;;;;;10.26;100.00;100636.97;4974758;28;20734;-76
2023/05/21 03:59:58;;;;;;;0.00;0.00;;;;;;;10.33;100.00;100645.59;4975007;28;20189;-75
2023/05/21 04:02:26;;;;;;;0.00;0.00;;;;;;;10.27;100.00;100646.78;4974952;28;20235;-76
2023/05/21 04:04:52;;;;;;;0.13;0.13;;;;;;;10.20;100.00;100646.38;4992398;28;20197;-74
2023/05/21 04:07:18;;;;;;;0.00;0.00;;;;;;;10.21;100.00;100646.09;4974801;28;20197;-76
2023/05/21 04:09:44;;;;;;;0.00;0.00;;;;;;;10.26;100.00;100647.91;4975630;28;20185;-76
2023/05/21 04:12:09;;;;;;;0.00;0.00;;;;;;;10.24;100.00;100655.59;4992165;28;20782;-76
2023/05/21 04:14:36;;;;;;;0.03;0.03;;;;;;;10.27;100.00;100650.38;4974174;28;20185;-76
2023/05/21 04:17:03;;;;;;;0.00;0.00;;;;;;;10.29;100.00;100650.88;4974592;28;20666;-76
2023/05/21 04:19:29;;;;;;;0.00;0.00;;;;;;;10.30;100.00;100651.66;4992007;28;20202;-76
2023/05/21 04:21:54;;;;;;;0.27;0.27;;;;;;;10.31;100.00;100645.09;4974533;28;20552;-76
2023/05/21 04:24:21;;;;;;;0.00;0.00;;;;;;;10.38;100.00;100643.56;4992141;28;20525;-76
2023/05/21 04:26:46;;;;;;;0.00;0.00;;;;;;;10.44;100.00;100641.53;4991430;28;20537;-76
2023/05/21 04:29:12;;;;;;;0.00;0.00;;;;;;;10.51;100.00;100644.66;4992078;28;20176;-76
2023/05/21 04:31:37;;;;;;;0.00;0.00;;;;;;;10.56;100.00;100650.03;4992387;28;20296;-75
2023/05/21 04:34:03;;;;;;;0.00;0.00;;;;;;;10.56;100.00;100647.28;4974734;28;20276;-76
2023/05/21 04:36:29;;;;;;;0.00;0.00;;;;;;;10.70;100.00;100653.53;4957996;28;20648;-75
2023/05/21 04:38:54;;;;;;;0.00;0.00;;;;;;;10.87;100.00;100655.63;4992004;28;20177;-76
2023/05/21 04:41:20;;;;;;;0.13;0.13;;;;;;;10.87;100.00;100660.28;4991632;28;20185;-76
2023/05/21 04:43:45;;;;;;;0.00;0.00;;;;;;;10.86;100.00;100651.28;4991690;28;20259;-76
2023/05/21 04:46:11;;;;;;;1.40;1.40;;;;;;;10.83;100.00;100645.59;4991604;28;20177;-76
2023/05/21 04:48:36;;;;;;;0.47;0.47;;;;;;;10.86;100.00;100656.75;4991404;28;20185;-76
2023/05/21 04:51:04;;;;;;;0.00;0.00;;;;;;;10.96;100.00;100656.50;4991649;28;20288;-77
2023/05/21 04:53:30;;;;;;;1.80;1.70;;;;;;;10.98;100.00;100654.25;4991724;28;20247;-76
2023/05/21 04:55:58;;;;;;;0.53;0.53;;;;;;;11.01;100.00;100647.38;4973975;28;20686;-76
2023/05/21 04:58:23;;;;;;;0.00;0.00;;;;;;;11.07;100.00;100646.13;4990958;28;20193;-76
2023/05/21 05:00:50;;;;;;;0.00;0.00;;;;;;;11.09;100.00;100651.28;4991652;28;20193;-76
2023/05/21 05:03:16;;;;;;;0.90;0.60;;;;;;;11.05;100.00;100653.03;4991311;28;20755;-77
2023/05/21 05:05:41;;;;;;;0.00;0.00;;;;;;;11.10;100.00;100655.63;4973903;28;20287;-76
2023/05/21 05:08:07;;;;;;;1.30;1.20;;;;;;;11.14;100.00;100652.00;4991156;28;20265;-77
2023/05/21 05:10:32;;;;;;;0.37;0.37;;;;;;;11.11;100.00;100655.31;4991357;28;20643;-75
2023/05/21 05:12:58;;;;;;;0.00;0.00;;;;;;;11.18;100.00;100650.25;4991209;28;20222;-76
2023/05/21 05:15:23;;;;;;;0.83;0.83;;;;;;;11.21;100.00;100646.88;4991618;28;20233;-76
2023/05/21 05:17:49;;;;;;;0.33;0.33;;;;;;;11.28;100.00;100643.69;4973409;28;20240;-76
2023/05/21 05:20:14;;;;;;;0.00;0.00;;;;;;;11.41;100.00;100642.03;4991664;28;20181;-77
2023/05/21 05:22:40;;;;;;;1.60;1.50;;;;;;;11.45;100.00;100643.84;4991645;28;20200;-77
2023/05/21 05:25:06;;;;;;;0.87;0.87;;;;;;;11.49;100.00;100649.50;4975536;28;20196;-77
2023/05/21 05:27:32;;;;;;;0.00;0.00;;;;;;;11.57;100.00;100645.97;4995139;28;20200;-75
2023/05/21 05:29:57;;;;;;;0.57;0.57;;;;;;;11.61;100.00;100645.06;4995364;28;20185;-75
2023/05/21 05:32:23;;;;;;;0.87;0.40;;;;;;;11.65;100.00;100642.50;4994880;28;20854;-76
2023/05/21 05:34:48;;;;;;;1.30;1.30;;;;;;;11.66;100.00;100641.38;4977683;28;20640;-77
2023/05/21 05:37:13;;;;;;;0.00;0.00;;;;;;;11.69;100.00;100648.97;4977527;28;20185;-77
2023/05/21 05:39:38;;;;;;;8.33;2.67;;;;;;;11.69;100.00;100639.94;4977592;28;20236;-76
2023/05/21 05:42:04;;;;;;;0.00;0.00;;;;;;;11.74;100.00;100637.91;4995199;28;20194;-77
2023/05/21 05:44:30;;;;;;;0.20;0.20;;;;;;;11.82;100.00;100636.34;4995267;28;20187;-74
2023/05/21 05:46:55;;;;;;;0.77;0.73;;;;;;;11.90;100.00;100632.84;4994589;28;20177;-77
2023/05/21 05:49:21;;;;;;;0.93;0.93;;;;;;;11.86;100.00;100635.41;4977844;28;20185;-75
2023/05/21 05:51:46;;;;;;;0.70;0.70;;;;;;;11.88;100.00;100633.16;4994853;28;20201;-75
2023/05/21 05:54:13;;;;;;;1.60;1.50;;;;;;;11.91;100.00;100634.47;4994828;28;20691;-76
2023/05/21 05:56:38;;;;;;;0.77;0.77;;;;;;;11.96;100.00;100639.78;4994564;28;20186;-76
2023/05/21 05:59:03;;;;;;;1.53;1.43;;;;;;;12.03;100.00;100645.63;4994875;28;20188;-77
2023/05/21 06:01:30;;;;;;;0.63;0.63;;;;;;;12.01;100.00;100644.34;4994484;28;20575;-76
2023/05/21 06:03:56;;;;;;;0.67;0.63;;;;;;;12.09;100.00;100649.84;4977224;28;20192;-76
2023/05/21 06:06:21;;;;;;;0.27;0.27;;;;;;;12.16;100.00;100654.88;4994354;28;20177;-76
2023/05/21 06:08:47;;;;;;;0.00;0.00;;;;;;;12.28;100.00;100648.75;4986754;28;20174;-75
2023/05/21 06:11:15;;;;;;;2.23;2.10;;;;;;;12.25;100.00;100649.41;4977482;28;20182;-76
2023/05/21 06:13:41;;;;;;;0.77;0.77;;;;;;;12.27;100.00;100642.47;4994397;28;20270;-75
2023/05/21 06:16:08;;;;;;;0.00;0.00;;;;;;;12.36;100.00;100648.78;4987890;28;20682;-76
2023/05/21 06:18:34;;;;;;;0.57;0.57;;;;;;;12.51;100.00;100653.03;4962646;28;20191;-82
2023/05/21 06:21:00;;;;;;;0.73;0.73;;;;;;;12.61;100.00;100651.94;4977768;28;20193;-76
2023/05/21 06:23:26;;;;;;;0.63;0.53;;;;;;;12.65;100.00;100650.16;4993898;28;20277;-74
2023/05/21 06:25:51;;;;;;;0.30;0.30;;;;;;;12.66;100.00;100658.06;4994073;28;20319;-75
2023/05/21 06:28:17;;;;;;;0.00;0.00;;;;;;;12.81;100.00;100656.78;4993750;28;20726;-76
2023/05/21 06:30:42;;;;;;;0.00;0.00;;;;;;;12.96;100.00;100650.81;4993950;28;20235;-76
2023/05/21 06:33:08;;;;;;;1.17;1.17;;;;;;;13.08;100.00;100659.22;4976293;28;20588;-75
2023/05/21 06:35:35;;;;;;;0.00;0.00;;;;;;;13.08;100.00;100644.69;4976537;28;20660;-76
2023/05/21 06:38:01;;;;;;;0.93;0.93;;;;;;;13.21;100.00;100649.25;4975229;28;20601;-76
2023/05/21 06:40:27;;;;;;;2.97;2.77;;;;;;;13.14;100.00;100646.13;4993974;28;20752;-77
2023/05/21 06:42:55;;;;;;;3.07;2.83;;;;;;;13.01;100.00;100650.66;4993658;28;20286;-76
2023/05/21 06:45:20;;;;;;;1.13;0.57;;;;;;;13.09;100.00;100658.09;4976175;28;20181;-76
2023/05/21 06:47:45;;;;;;;2.63;2.30;;;;;;;13.15;100.00;100652.44;4993378;28;20177;-76
2023/05/21 06:50:11;;;;;;;3.03;2.13;;;;;;;13.14;100.00;100651.63;4976344;28;20188;-76
2023/05/21 06:52:36;;;;;;;0.00;0.00;;;;;;;13.13;100.00;100654.69;4975777;28;20572;-74
2023/05/21 06:55:02;;;;;;;2.47;2.27;;;;;;;13.20;100.00;100652.31;4972324;28;20177;-75
2023/05/21 06:57:27;;;;;;;1.23;1.13;;;;;;;13.31;100.00;100653.59;4967055;28;20178;-76
2023/05/21 06:59:52;;;;;;;5.03;4.63;;;;;;;13.28;100.00;100648.75;4985626;28;20181;-76
2023/05/21 07:02:18;;;;;;;1.97;1.23;;;;;;;13.31;100.00;100648.13;4993230;28;20189;-76
2023/05/21 07:04:43;;;;;;;5.47;2.60;;;;;;;13.37;100.00;100649.56;4992911;28;20196;-74
2023/05/21 07:07:09;;;;;;;4.27;2.93;;;;;;;13.42;100.00;100646.63;4992976;28;20235;-76
2023/05/21 07:09:34;;;;;;;3.43;2.27;;;;;;;13.50;100.00;100650.50;4975895;28;20743;-75
2023/05/21 07:12:00;;;;;;;0.20;0.20;;;;;;;13.59;100.00;100641.09;4993120;28;20209;-75
2023/05/21 07:14:26;;;;;;;2.10;2.00;;;;;;;13.70;100.00;100656.09;4975648;28;20272;-76
2023/05/21 07:16:51;;;;;;;3.80;2.87;;;;;;;13.83;100.00;100650.72;4992747;28;20209;-76
2023/05/21 07:19:17;;;;;;;3.27;3.07;;;;;;;13.86;100.00;100650.06;4975750;28;20192;-76
2023/05/21 07:21:42;;;;;;;2.97;2.77;;;;;;;13.90;100.00;100645.56;4975238;28;20205;-74
2023/05/21 07:24:07;;;;;;;8.33;6.00;;;;;;;13.89;100.00;100644.75;4990610;28;20188;-76
2023/05/21 07:26:32;;;;;;;3.53;3.23;;;;;;;13.90;100.00;100638.13;4992781;28;20181;-75
2023/05/21 07:28:58;;;;;;;5.50;2.33;;;;;;;13.94;100.00;100630.03;4993085;28;20231;-76
2023/05/21 07:31:24;;;;;;;3.60;3.37;;;;;;;14.00;100.00;100628.69;4992745;28;20824;-74
2023/05/21 07:33:49;;;;;;;0.00;0.00;;;;;;;14.23;100.00;100629.25;4984833;28;20208;-76
2023/05/21 07:36:14;;;;;;;6.43;5.50;;;;;;;14.34;100.00;100627.72;4974986;28;20185;-75
2023/05/21 07:38:40;;;;;;;1.07;1.07;;;;;;;14.44;100.00;100638.34;4993014;28;20280;-76
2023/05/21 07:41:05;;;;;;;0.67;0.67;;;;;;;14.62;100.00;100641.03;4975395;28;20185;-76
2023/05/21 07:43:30;;;;;;;10.30;4.87;;;;;;;14.56;100.00;100637.66;4992687;28;20201;-76
2023/05/21 07:45:56;;;;;;;1.27;1.03;;;;;;;14.60;100.00;100635.84;4992454;28;20305;-76
2023/05/21 07:48:21;;;;;;;1.60;1.20;;;;;;;14.72;100.00;100638.66;4973868;28;20181;-76
2023/05/21 07:50:48;;;;;;;1.20;1.20;;;;;;;14.74;100.00;100635.56;4992599;28;20267;-74
2023/05/21 07:53:14;;;;;;;0.03;0.03;;;;;;;14.87;100.00;100627.06;4992401;28;20205;-76
2023/05/21 07:55:46;;;;;;;6.57;5.97;;;;;;;14.91;100.00;100635.47;4992304;28;20727;-74
2023/05/21 07:58:13;;;;;;;6.10;5.53;;;;;;;14.92;100.00;100631.56;4992005;28;20243;-74
2023/05/21 08:00:43;;;;;;;4.27;3.83;;;;;;;15.03;100.00;100632.75;4992306;28;20181;-76
2023/05/21 08:03:10;;;;;;;6.13;5.27;;;;;;;15.09;100.00;100630.63;4992445;28;20706;-76
2023/05/21 08:05:35;;;;;;;5.07;4.60;;;;;;;15.11;100.00;100629.13;4975207;28;20320;-74
2023/05/21 08:08:01;;;;;;;2.23;2.13;;;;;;;15.16;100.00;100628.94;4974469;28;20237;-76
2023/05/21 08:10:26;;;;;;;0.43;0.43;;;;;;;15.30;100.00;100625.06;4992268;28;20597;-76
2023/05/21 08:12:52;;;;;;;12.53;10.07;;;;;;;15.30;100.00;100625.88;4991952;28;20288;-75
2023/05/21 08:15:17;;;;;;;2.10;2.00;;;;;;;15.49;100.00;100619.88;4974805;28;20189;-76
2023/05/21 08:17:42;;;;;;;2.97;2.27;;;;;;;15.51;100.00;100627.81;4991945;28;20553;-77
2023/05/21 08:20:09;;;;;;;3.50;1.63;;;;;;;15.70;100.00;100628.09;4992285;28;20296;-77
2023/05/21 08:22:34;;;;;;;1.13;1.13;;;;;;;15.79;100.00;100619.75;4992208;28;20193;-75
2023/05/21 08:25:00;;;;;;;9.87;7.13;;;;;;;15.91;100.00;100617.81;4975024;28;20177;-77
2023/05/21 08:27:25;;;;;;;3.63;3.33;;;;;;;16.09;100.00;100618.41;4991356;28;20710;-76
2023/05/21 08:29:51;;;;;;;2.00;1.73;;;;;;;16.16;100.00;100628.84;4974501;28;20280;-75
2023/05/21 08:32:16;;;;;;;6.17;3.67;;;;;;;16.39;100.00;100629.19;4991715;28;20208;-76
2023/05/21 08:34:41;;;;;;;9.23;6.73;;;;;;;16.45;100.00;100627.78;4991947;28;20268;-77
2023/05/21 08:37:07;;;;;;;5.50;5.03;;;;;;;16.47;100.00;100628.25;4991592;28;20264;-74
2023/05/21 08:39:32;;;;;;;9.73;8.03;;;;;;;16.58;100.00;100624.69;4992222;28;20215;-77
2023/05/21 08:42:08;;;;;;;7.53;6.93;;;;;;;16.78;100.00;100617.44;4991898;28;20696;-75
2023/05/21 08:44:40;;;;;;;2.03;1.93;;;;;;;16.91;100.00;100618.19;4992044;28;20709;-77
2023/05/21 08:47:08;;;;;;;11.43;10.33;;;;;;;16.65;100.00;100622.16;4991761;28;20698;-77
2023/05/21 08:49:34;;;;;;;7.93;6.80;;;;;;;16.87;100.00;100615.31;4991751;28;20280;-77
2023/05/21 08:52:01;;;;;;;1.13;1.13;;;;;;;17.05;100.00;100626.88;4974205;28;20259;-76
2023/05/21 08:54:26;;;;;;;6.13;5.20;;;;;;;16.95;99.65;100619.13;4991770;28;20195;-75
2023/05/21 08:56:53;;;;;;;7.80;7.00;;;;;;;17.03;99.55;100614.59;4991304;28;20263;-77
2023/05/21 08:59:20;;;;;;;8.37;7.70;;;;;;;17.08;99.31;100615.16;4991593;28;20189;-76
2023/05/21 09:01:48;;;;;;;4.80;4.40;;;;;;;17.06;99.26;100611.13;4974744;28;20240;-77
2023/05/21 09:04:16;;;;;;;12.03;7.93;;;;;;;16.96;99.42;100606.91;4992372;28;20600;-77
2023/05/21 09:06:42;;;;;;;0.00;0.00;;;;;;;17.15;99.96;100615.34;4974024;28;20188;-76
2023/05/21 09:09:20;;;;;;;3.13;2.93;;;;;;;17.38;99.86;100612.03;4992483;28;20192;-77
2023/05/21 09:11:46;;;;;;;1.73;0.80;;;;;;;17.54;99.57;100612.88;4974564;28;20683;-77
2023/05/21 09:14:13;;;;;;;5.60;1.80;;;;;;;17.83;99.60;100614.44;4950609;28;20196;-77
2023/05/21 09:16:39;;;;;;;2.50;2.33;;;;;;;17.79;97.44;100608.00;4991787;28;20187;-75
2023/05/21 09:19:06;;;;;;;7.90;6.13;;;;;;;17.95;97.08;100611.59;4992510;28;20173;-76
2023/05/21 09:21:32;;;;;;;3.67;3.37;;;;;;;17.77;96.18;100610.31;4992316;28;20193;-76
2023/05/21 09:23:58;;;;;;;7.17;3.93;;;;;;;17.84;95.87;100613.28;4991786;28;20180;-76
2023/05/21 09:26:25;;;;;;;4.23;3.90;;;;;;;17.87;95.98;100611.75;4991621;28;20181;-77
2023/05/21 09:28:51;;;;;;;11.70;10.67;;;;;;;17.99;95.19;100609.72;4992549;28;20185;-77
2023/05/21 09:31:16;;;;;;;5.20;4.70;;;;;;;18.08;94.38;100612.28;4991383;28;20188;-77
2023/05/21 09:33:46;;;;;;;3.27;1.80;;;;;;;18.37;94.10;100609.06;4991788;28;20200;-77
2023/05/21 09:36:12;;;;;;;4.10;3.80;;;;;;;18.64;93.48;100612.03;4992124;28;20250;-77
2023/05/21 09:38:37;;;;;;;8.30;7.20;;;;;;;18.92;91.93;100609.06;4991823;28;20660;-75
2023/05/21 09:41:06;;;;;;;4.83;4.40;;;;;;;19.08;91.52;100609.00;4958253;28;20185;-77
2023/05/21 09:43:31;;;;;;;1.07;1.07;;;;;;;19.04;91.03;100608.94;4991869;28;20235;-77
2023/05/21 09:45:58;;;;;;;6.67;6.10;;;;;;;19.18;90.62;100609.22;4974769;28;20711;-77
2023/05/21 09:48:49;;;;;;;6.07;5.57;;;;;;;19.37;88.98;100600.09;4991124;28;20262;-76
2023/05/21 09:51:16;;;;;;;3.00;2.80;;;;;;;19.28;87.72;100602.31;4987208;28;20558;-77
2023/05/21 09:53:59;;;;;;;8.13;5.63;;;;;;;19.24;87.63;100602.25;4991653;28;20205;-76
2023/05/21 09:56:30;;;;;;;7.23;6.63;;;;;;;19.36;87.46;100609.56;4992234;28;20174;-77
2023/05/21 09:58:59;;;;;;;3.23;3.03;;;;;;;19.50;87.83;100590.44;4992224;28;20216;-77
2023/05/21 10:01:24;;;;;;;4.63;4.20;;;;;;;19.55;87.00;100594.94;4992418;28;20178;-77
2023/05/21 10:03:55;;;;;;;4.50;4.13;;;;;;;19.72;86.15;100586.13;4992189;28;20178;-77
2023/05/21 10:06:23;;;;;;;3.27;2.97;;;;;;;19.92;85.79;100581.28;4991313;28;20220;-77
2023/05/21 10:08:52;;;;;;;9.03;3.97;;;;;;;19.92;84.99;100581.28;4991727;28;20200;-77
2023/05/21 10:11:21;;;;;;;7.47;6.87;;;;;;;20.10;83.89;100573.25;4991851;28;20185;-78
2023/05/21 10:13:51;;;;;;;8.07;7.47;;;;;;;20.06;82.66;100586.25;4977879;28;20237;-75
2023/05/21 10:16:16;;;;;;;10.13;9.17;;;;;;;20.02;82.65;100575.13;4994775;28;20552;-78
2023/05/21 10:18:45;;;;;;;10.77;9.80;;;;;;;20.11;82.16;100564.56;4995220;28;20190;-77
2023/05/21 10:21:10;;;;;;;7.60;6.93;;;;;;;20.07;82.70;100579.53;4994787;28;20186;-77
2023/05/21 10:23:37;;;;;;;3.87;3.67;;;;;;;20.39;81.33;100566.16;4994839;28;20180;-77
2023/05/21 10:26:04;;;;;;;10.03;8.90;;;;;;;20.45;80.96;100573.03;4977315;28;20193;-77
2023/05/21 10:28:31;;;;;;;10.67;9.57;;;;;;;20.42;82.09;100571.00;4994637;28;20259;-76
2023/05/21 10:30:56;;;;;;;1.27;1.17;;;;;;;20.16;82.51;100572.56;4995186;28;20217;-78
2023/05/21 10:33:23;;;;;;;6.83;6.23;;;;;;;20.47;82.56;100565.91;4994965;28;20621;-77
2023/05/21 10:35:50;;;;;;;11.47;10.37;;;;;;;20.48;81.03;100566.72;4961870;28;20249;-78
2023/05/21 10:38:18;;;;;;;7.07;6.43;;;;;;;20.29;81.33;100561.25;4994951;28;20190;-78
2023/05/21 10:40:44;;;;;;;5.93;5.43;;;;;;;20.38;82.12;100565.34;4994974;28;20185;-78
2023/05/21 10:43:23;;;;;;;3.10;2.87;;;;;;;20.39;81.31;100561.41;4977622;28;20213;-78
2023/05/21 10:46:08;;;;;;;7.93;7.20;;;;;;;20.51;81.46;100565.97;4994888;28;20592;-78
2023/05/21 10:49:21;;;;;;;7.00;4.67;;;;;;;20.63;80.99;100557.41;4994244;28;20186;-78
2023/05/21 10:52:13;;;;;;;3.50;3.20;;;;;;;20.80;80.68;100548.50;4996018;28;20197;-85
2023/05/21 10:55:00;;;;;;;8.43;7.63;;;;;;;20.87;79.34;100547.00;4979435;28;20193;-83
2023/05/21 10:57:44;;;;;;;9.17;8.27;;;;;;;21.05;79.14;100550.78;4995764;28;20257;-82
2023/05/21 11:00:12;;;;;;;13.13;10.00;;;;;;;21.01;77.64;100536.06;4994900;28;20182;-77
2023/05/21 11:02:38;;;;;;;10.80;9.90;;;;;;;20.96;78.17;100534.38;4976198;28;20205;-77
2023/05/21 11:05:03;;;;;;;2.20;2.03;;;;;;;20.98;77.71;100525.69;4995878;28;20179;-82
2023/05/21 11:07:57;;;;;;;10.20;9.20;;;;;;;21.05;77.34;100514.66;4976808;28;20198;-75
2023/05/21 11:10:29;;;;;;;8.70;7.83;;;;;;;21.01;76.91;100514.63;4993912;28;20262;-77
2023/05/21 11:13:04;;;;;;;11.43;10.43;;;;;;;21.05;77.00;100520.22;4993495;28;20201;-77
2023/05/21 11:15:30;;;;;;;3.67;3.37;;;;;;;21.42;77.47;100522.22;4993652;28;20269;-78
2023/05/21 11:17:55;;;;;;;2.30;2.20;;;;;;;21.48;76.38;100518.69;4993211;28;20277;-76